createdAt,value
2018-02-07T00:01:35.170Z,51.25
2018-02-07T00:04:04.878Z,53.05
2018-02-07T00:06:34.762Z,50.12
2018-02-07T00:09:03.949Z,58.30
2018-02-07T00:11:33.673Z,53.90
2018-02-07T00:14:03.530Z,47.97
2018-02-07T00:16:33.289Z,47.47
2018-02-07T00:19:03.003Z,50.12
2018-02-07T00:21:32.782Z,52.67
2018-02-07T00:24:02.494Z,52.65
2018-02-07T00:26:32.238Z,52.45
2018-02-07T00:29:02.070Z,50.70
2018-02-07T00:31:31.883Z,53.70
2018-02-07T00:34:01.585Z,54.50
2018-02-07T00:36:31.465Z,58.45
2018-02-07T00:39:01.210Z,53.63
2018-02-07T00:41:30.929Z,57.72
2018-02-07T00:44:00.646Z,60.38
2018-02-07T00:46:30.357Z,53.38
2018-02-07T00:49:00.096Z,52.53
2018-02-07T00:51:29.805Z,49.97
2018-02-07T00:53:59.645Z,48.40
2018-02-07T00:56:29.358Z,55.50
2018-02-07T00:58:59.082Z,53.83
2018-02-07T01:01:28.797Z,53.30
2018-02-07T01:03:58.521Z,52.90
2018-02-07T01:06:28.233Z,50.92
2018-02-07T01:08:57.961Z,51.10
2018-02-07T01:11:27.703Z,48.13
2018-02-07T01:13:57.425Z,45.28
2018-02-07T01:16:27.136Z,47.55
2018-02-07T01:18:56.888Z,51.33
2018-02-07T01:21:26.598Z,50.08
2018-02-07T01:23:56.321Z,47.38
2018-02-07T01:26:26.045Z,54.00
2018-02-07T01:28:55.766Z,50.28
2018-02-07T01:31:25.505Z,49.47
2018-02-07T01:33:55.224Z,48.03
2018-02-07T01:36:25.037Z,43.83
2018-02-07T01:38:54.769Z,44.20
2018-02-07T01:41:24.481Z,47.47
2018-02-07T01:43:54.218Z,58.72
2018-02-07T01:46:23.942Z,46.75
2018-02-07T01:48:53.658Z,47.45
2018-02-07T01:51:23.380Z,50.47
2018-02-07T01:53:53.173Z,46.97
2018-02-07T01:56:22.884Z,52.17
2018-02-07T01:58:52.681Z,50.05
2018-02-07T02:01:22.389Z,45.35
2018-02-07T02:03:52.112Z,45.53
2018-02-07T02:06:21.853Z,47.45
2018-02-07T02:08:51.567Z,44.78
2018-02-07T02:11:21.287Z,45.55
2018-02-07T02:13:51.001Z,47.90
2018-02-07T02:16:20.809Z,41.95
2018-02-07T02:18:50.522Z,47.28
2018-02-07T02:21:20.237Z,42.70
2018-02-07T02:23:49.988Z,47.62
2018-02-07T02:26:19.714Z,49.17
2018-02-07T02:28:49.450Z,47.78
2018-02-07T02:31:19.175Z,51.55
2018-02-07T02:33:48.900Z,48.53
2018-02-07T02:36:24.098Z,53.78
2018-02-07T02:38:53.821Z,47.72
2018-02-07T02:41:23.525Z,46.97
2018-02-07T02:43:53.354Z,44.38
2018-02-07T02:46:23.112Z,46.63
2018-02-07T02:48:52.998Z,52.53
2018-02-07T02:51:22.709Z,49.95
2018-02-07T02:53:52.445Z,48.55
2018-02-07T02:56:22.322Z,44.83
2018-02-07T02:58:52.038Z,43.03
2018-02-07T03:01:21.769Z,45.05
2018-02-07T03:03:51.482Z,43.50
2018-02-07T03:06:21.229Z,48.38
2018-02-07T03:08:50.979Z,46.47
2018-02-07T03:11:20.710Z,50.97
2018-02-07T03:13:50.404Z,45.63
2018-02-07T03:16:20.230Z,43.25
2018-02-07T03:18:49.940Z,43.03
2018-02-07T03:21:19.878Z,47.67
2018-02-07T03:23:49.609Z,50.92
2018-02-07T03:26:19.350Z,45.28
2018-02-07T03:28:49.102Z,42.97
2018-02-07T03:31:18.811Z,45.35
2018-02-07T03:33:48.554Z,43.63
2018-02-07T03:36:18.275Z,48.63
2018-02-07T03:38:48.109Z,46.25
2018-02-07T03:41:17.822Z,47.75
2018-02-07T03:43:47.609Z,47.75
2018-02-07T03:46:17.342Z,46.37
2018-02-07T03:48:47.069Z,44.42
2018-02-07T03:51:16.775Z,46.30
2018-02-07T03:53:46.501Z,50.38
2018-02-07T03:56:16.217Z,54.17
2018-02-07T03:58:45.921Z,44.67
2018-02-07T04:01:15.649Z,54.67
2018-02-07T04:03:45.383Z,44.67
2018-02-07T04:06:15.102Z,46.17
2018-02-07T04:08:44.805Z,45.55
2018-02-07T04:11:14.617Z,48.70
2018-02-07T04:13:44.429Z,46.05
2018-02-07T04:16:14.153Z,50.95
2018-02-07T04:18:43.886Z,48.38
2018-02-07T04:21:13.613Z,51.42
2018-02-07T04:23:43.638Z,50.08
2018-02-07T04:26:13.345Z,52.67
2018-02-07T04:28:43.082Z,51.08
2018-02-07T04:31:12.805Z,44.90
2018-02-07T04:33:42.540Z,48.53
2018-02-07T04:36:12.277Z,52.03
2018-02-07T04:38:42.009Z,52.58
2018-02-07T04:41:11.713Z,50.83
2018-02-07T04:43:41.438Z,48.10
2018-02-07T04:46:11.157Z,41.63
2018-02-07T04:48:40.881Z,51.08
2018-02-07T04:51:10.625Z,48.17
2018-02-07T04:53:40.529Z,46.75
2018-02-07T04:56:10.410Z,52.60
2018-02-07T04:58:40.131Z,55.58
2018-02-07T05:01:09.842Z,46.97
2018-02-07T05:03:39.561Z,52.95
2018-02-07T05:06:09.289Z,49.35
2018-02-07T05:08:38.989Z,45.33
2018-02-07T05:11:08.725Z,48.00
2018-02-07T05:13:38.534Z,56.53
2018-02-07T05:16:08.441Z,47.05
2018-02-07T05:18:38.203Z,50.35
2018-02-07T05:21:08.138Z,48.72
2018-02-07T05:23:37.865Z,54.42
2018-02-07T05:26:07.720Z,51.22
2018-02-07T05:28:37.433Z,51.00
2018-02-07T05:31:07.158Z,55.47
2018-02-07T05:33:36.922Z,50.38
2018-02-07T05:36:06.821Z,49.30
2018-02-07T05:38:36.543Z,56.85
2018-02-07T05:41:06.243Z,43.80
2018-02-07T05:43:35.970Z,52.08
2018-02-07T05:46:05.698Z,42.28
2018-02-07T05:48:35.445Z,50.30
2018-02-07T05:51:05.178Z,53.55
2018-02-07T05:53:34.913Z,45.20
2018-02-07T05:56:04.730Z,44.88
2018-02-07T05:58:34.622Z,48.97
2018-02-07T06:01:04.360Z,54.95
2018-02-07T06:03:34.270Z,52.83
2018-02-07T06:06:03.985Z,50.00
2018-02-07T06:08:33.697Z,46.85
2018-02-07T06:11:03.429Z,49.63
2018-02-07T06:13:33.141Z,42.38
2018-02-07T06:16:02.856Z,44.65
2018-02-07T06:18:32.629Z,50.65
2018-02-07T06:21:02.364Z,43.28
2018-02-07T06:23:32.072Z,50.38
2018-02-07T06:26:01.796Z,46.35
2018-02-07T06:28:31.508Z,51.60
2018-02-07T06:31:01.237Z,46.15
2018-02-07T06:33:30.603Z,57.92
2018-02-07T06:36:00.142Z,46.63
2018-02-07T06:38:29.877Z,57.75
2018-02-07T06:40:59.610Z,54.30
2018-02-07T06:43:29.310Z,55.03
2018-02-07T06:45:59.053Z,47.85
2018-02-07T06:48:28.842Z,51.50
2018-02-07T06:50:58.553Z,50.92
2018-02-07T06:53:28.278Z,50.00
2018-02-07T06:55:57.981Z,52.53
2018-02-07T06:58:27.385Z,55.45
2018-02-07T07:00:57.101Z,54.83
2018-02-07T07:03:26.831Z,47.38
2018-02-07T07:05:56.561Z,54.80
2018-02-07T07:08:26.281Z,55.65
2018-02-07T07:10:55.990Z,49.70
2018-02-07T07:13:25.748Z,49.08
2018-02-07T07:15:55.457Z,54.40
2018-02-07T07:18:25.181Z,49.28
2018-02-07T07:20:54.938Z,55.33
2018-02-07T07:23:24.332Z,50.83
2018-02-07T07:25:54.068Z,56.30
2018-02-07T07:28:23.786Z,50.33
2018-02-07T07:30:53.522Z,52.13
2018-02-07T07:33:23.247Z,51.88
2018-02-07T07:35:53.044Z,49.72
2018-02-07T07:38:22.762Z,49.35
2018-02-07T07:40:52.465Z,51.13
2018-02-07T07:43:22.194Z,49.58
2018-02-07T07:45:51.911Z,53.85
2018-02-07T07:48:21.629Z,55.00
2018-02-07T07:50:51.410Z,53.72
2018-02-07T07:53:21.129Z,48.87
2018-02-07T07:55:50.878Z,53.00
2018-02-07T07:58:20.773Z,50.15
2018-02-07T08:00:50.507Z,56.88
2018-02-07T08:03:20.213Z,56.95
2018-02-07T08:05:49.939Z,51.45
2018-02-07T08:08:19.643Z,54.15
2018-02-07T08:10:49.394Z,46.47
2018-02-07T08:13:19.165Z,57.55
2018-02-07T08:15:48.890Z,48.30
2018-02-07T08:18:18.610Z,56.30
2018-02-07T08:20:48.337Z,49.60
2018-02-07T08:23:18.066Z,49.53
2018-02-07T08:25:47.784Z,45.42
2018-02-07T08:28:17.572Z,48.05
2018-02-07T08:30:47.458Z,49.92
2018-02-07T08:33:17.204Z,46.60
2018-02-07T08:35:46.915Z,50.95
2018-02-07T08:38:16.637Z,45.28
2018-02-07T08:40:46.351Z,46.42
2018-02-07T08:43:16.086Z,49.58
2018-02-07T08:45:45.794Z,47.60
2018-02-07T08:48:15.525Z,45.08
2018-02-07T08:50:45.261Z,53.80
2018-02-07T08:53:15.033Z,53.58
2018-02-07T08:55:44.757Z,51.45
2018-02-07T08:58:14.472Z,48.25
2018-02-07T09:00:44.201Z,51.22
2018-02-07T09:03:13.955Z,55.80
2018-02-07T09:05:43.914Z,50.65
2018-02-07T09:08:13.633Z,53.15
2018-02-07T09:10:43.373Z,49.45
2018-02-07T09:13:13.105Z,53.87
2018-02-07T09:15:42.821Z,46.42
2018-02-07T09:18:12.545Z,45.47
2018-02-07T09:20:42.248Z,50.03
2018-02-07T09:23:12.001Z,56.13
2018-02-07T09:25:41.713Z,51.22
2018-02-07T09:28:11.465Z,48.30
2018-02-07T09:30:41.187Z,53.40
2018-02-07T09:33:10.909Z,56.70
2018-02-07T09:35:40.604Z,56.90
2018-02-07T09:38:10.329Z,50.12
2018-02-07T09:40:40.037Z,54.53
2018-02-07T09:43:09.786Z,58.53
2018-02-07T09:45:39.504Z,51.00
2018-02-07T09:48:09.234Z,52.30
2018-02-07T09:50:38.943Z,47.47
2018-02-07T09:53:08.693Z,46.45
2018-02-07T09:55:38.408Z,50.17
2018-02-07T09:58:08.177Z,55.92
2018-02-07T10:00:37.889Z,55.70
2018-02-07T10:03:07.609Z,53.30
2018-02-07T10:05:37.333Z,51.05
2018-02-07T10:08:07.074Z,50.20
2018-02-07T10:10:36.890Z,48.97
2018-02-07T10:13:06.633Z,51.55
2018-02-07T10:15:36.357Z,52.47
2018-02-07T10:18:06.081Z,55.47
2018-02-07T10:20:35.814Z,51.65
2018-02-07T10:23:05.594Z,55.00
2018-02-07T10:25:35.313Z,51.80
2018-02-07T10:28:05.011Z,52.05
2018-02-07T10:30:34.742Z,50.20
2018-02-07T10:33:04.451Z,49.78
2018-02-07T10:35:34.339Z,54.50
2018-02-07T10:38:04.078Z,54.85
2018-02-07T10:40:33.805Z,45.35
2018-02-07T10:43:03.542Z,54.65
2018-02-07T10:45:33.254Z,53.78
2018-02-07T10:48:02.977Z,55.42
2018-02-07T10:50:32.710Z,52.40
2018-02-07T10:53:02.438Z,52.70
2018-02-07T10:55:32.197Z,50.85
2018-02-07T10:58:01.925Z,55.17
2018-02-07T11:00:31.631Z,58.55
2018-02-07T11:03:01.369Z,52.65
2018-02-07T11:05:32.578Z,51.95
2018-02-07T11:08:02.305Z,55.47
2018-02-07T11:10:32.113Z,64.18
2018-02-07T11:13:01.856Z,61.35
2018-02-07T11:15:31.561Z,56.25
2018-02-07T11:18:01.306Z,53.67
2018-02-07T11:20:31.041Z,53.17
2018-02-07T11:23:00.745Z,64.85
2018-02-07T11:25:30.499Z,63.25
2018-02-07T11:28:00.201Z,60.15
2018-02-07T11:30:29.939Z,62.47
2018-02-07T11:32:59.639Z,60.92
2018-02-07T11:35:29.382Z,64.90
2018-02-07T11:37:58.974Z,57.25
2018-02-07T11:40:28.709Z,60.97
2018-02-07T11:42:58.421Z,56.42
2018-02-07T11:45:28.150Z,57.25
2018-02-07T11:47:57.875Z,64.72
2018-02-07T11:50:27.605Z,60.75
2018-02-07T11:52:57.330Z,60.03
2018-02-07T11:55:27.050Z,59.72
2018-02-07T11:57:56.752Z,59.67
2018-02-07T12:00:26.490Z,58.30
2018-02-07T12:02:56.233Z,52.90
2018-02-07T12:05:25.952Z,56.25
2018-02-07T12:07:55.689Z,55.72
2018-02-07T12:10:25.393Z,53.30
2018-02-07T12:12:55.143Z,55.47
2018-02-07T12:15:25.029Z,58.75
2018-02-07T12:17:54.842Z,59.53
2018-02-07T12:20:24.569Z,67.07
2018-02-07T12:22:54.280Z,60.38
2018-02-07T12:25:24.017Z,60.80
2018-02-07T12:27:53.753Z,62.15
2018-02-07T12:30:23.343Z,61.80
2018-02-07T12:32:53.048Z,61.03
2018-02-07T12:35:22.785Z,63.15
2018-02-07T12:37:52.509Z,61.72
2018-02-07T12:40:22.351Z,60.55
2018-02-07T12:42:52.099Z,58.13
2018-02-07T12:45:21.847Z,56.50
2018-02-07T12:47:51.562Z,64.40
2018-02-07T12:50:21.279Z,59.08
2018-02-07T12:52:50.986Z,59.33
2018-02-07T12:55:20.730Z,72.03
2018-02-07T12:57:50.467Z,63.20
2018-02-07T13:00:20.188Z,60.03
2018-02-07T13:02:49.931Z,57.00
2018-02-07T13:05:19.642Z,66.65
2018-02-07T13:07:49.377Z,62.88
2018-02-07T13:10:19.222Z,59.05
2018-02-07T13:12:48.958Z,61.35
2018-02-07T13:15:18.670Z,63.78
2018-02-07T13:17:48.502Z,57.80
2018-02-07T13:20:18.099Z,58.20
2018-02-07T13:22:47.826Z,58.85
2018-02-07T13:25:17.433Z,61.90
2018-02-07T13:27:47.169Z,64.70
2018-02-07T13:30:16.909Z,60.80
2018-02-07T13:32:46.617Z,58.63
2018-02-07T13:35:16.324Z,59.90
2018-02-07T13:37:46.049Z,52.45
2018-02-07T13:40:15.480Z,57.50
2018-02-07T13:42:45.243Z,55.42
2018-02-07T13:45:14.966Z,56.30
2018-02-07T13:47:44.703Z,56.58
2018-02-07T13:50:14.415Z,59.70
2018-02-07T13:52:43.883Z,63.57
2018-02-07T13:55:13.641Z,60.58
2018-02-07T13:57:43.105Z,59.77
2018-02-07T14:00:12.554Z,67.43
2018-02-07T14:02:42.255Z,52.53
2018-02-07T14:05:11.987Z,59.10
2018-02-07T14:07:41.702Z,60.40
2018-02-07T14:10:11.425Z,55.10
2018-02-07T14:12:40.907Z,51.57
2018-02-07T14:15:10.629Z,55.92
2018-02-07T14:17:40.351Z,59.65
2018-02-07T14:20:10.100Z,64.60
2018-02-07T14:22:39.534Z,56.33
2018-02-07T14:25:09.277Z,59.08
2018-02-07T14:27:39.005Z,56.88
2018-02-07T14:30:08.462Z,58.80
2018-02-07T14:32:38.167Z,57.60
2018-02-07T14:35:07.901Z,52.47
2018-02-07T14:37:37.666Z,54.47
2018-02-07T14:40:07.399Z,52.97
2018-02-07T14:42:37.121Z,54.05
2018-02-07T14:45:06.834Z,53.72
2018-02-07T14:47:36.538Z,56.42
2018-02-07T14:50:06.250Z,51.35
2018-02-07T14:52:35.966Z,58.80
2018-02-07T14:55:05.693Z,49.45
2018-02-07T14:57:35.423Z,51.75
2018-02-07T15:00:05.146Z,52.13
2018-02-07T15:02:34.988Z,52.90
2018-02-07T15:05:04.701Z,57.33
2018-02-07T15:07:34.422Z,54.05
2018-02-07T15:10:04.158Z,53.03
2018-02-07T15:12:33.900Z,52.38
2018-02-07T15:15:03.675Z,56.15
2018-02-07T15:17:33.560Z,64.12
2018-02-07T15:20:03.299Z,56.63
2018-02-07T15:22:33.045Z,52.38
2018-02-07T15:25:02.758Z,53.13
2018-02-07T15:27:32.494Z,49.30
2018-02-07T15:30:02.214Z,57.47
2018-02-07T15:32:31.921Z,54.00
2018-02-07T15:35:01.645Z,54.65
2018-02-07T15:37:31.359Z,52.83
2018-02-07T15:40:01.162Z,53.87
2018-02-07T15:42:30.878Z,55.85
2018-02-07T15:45:00.594Z,53.47
2018-02-07T15:47:30.305Z,54.90
2018-02-07T15:50:00.049Z,57.55
2018-02-07T15:52:29.987Z,55.20
2018-02-07T15:54:59.819Z,54.67
2018-02-07T15:57:29.546Z,50.15
2018-02-07T15:59:59.295Z,51.85
2018-02-07T16:02:29.018Z,49.55
2018-02-07T16:04:58.745Z,49.78
2018-02-07T16:07:28.473Z,53.83
2018-02-07T16:09:58.191Z,53.20
2018-02-07T16:12:27.914Z,47.42
2018-02-07T16:14:57.637Z,46.20
2018-02-07T16:17:27.370Z,52.78
2018-02-07T16:19:57.094Z,51.13
2018-02-07T16:22:26.849Z,47.25
2018-02-07T16:24:56.562Z,45.97
2018-02-07T16:27:26.299Z,49.03
2018-02-07T16:29:56.097Z,53.50
2018-02-07T16:32:25.825Z,51.67
2018-02-07T16:34:55.552Z,54.88
2018-02-07T16:37:25.274Z,48.45
2018-02-07T16:39:55.013Z,54.55
2018-02-07T16:42:24.725Z,64.03
2018-02-07T16:44:54.466Z,49.67
2018-02-07T16:47:24.194Z,45.85
2018-02-07T16:49:53.926Z,47.75
2018-02-07T16:52:23.629Z,50.17
2018-02-07T16:54:53.371Z,54.88
2018-02-07T16:57:23.118Z,60.08
2018-02-07T16:59:52.841Z,41.90
2018-02-07T17:02:22.558Z,51.58
2018-02-07T17:04:52.310Z,53.15
2018-02-07T17:07:22.049Z,55.78
2018-02-07T17:09:51.785Z,51.83
2018-02-07T17:12:21.513Z,47.83
2018-02-07T17:14:51.230Z,47.15
2018-02-07T17:17:21.015Z,50.25
2018-02-07T17:19:50.765Z,53.78
2018-02-07T17:22:20.645Z,52.60
2018-02-07T17:24:50.374Z,50.92
2018-02-07T17:27:20.113Z,49.92
2018-02-07T17:29:49.845Z,53.90
2018-02-07T17:32:19.726Z,50.83
2018-02-07T17:34:49.446Z,57.42
2018-02-07T17:37:19.048Z,46.80
2018-02-07T17:39:48.934Z,54.60
2018-02-07T17:42:18.673Z,54.83
2018-02-07T17:44:48.410Z,49.67
2018-02-07T17:47:18.145Z,49.75
2018-02-07T17:49:47.870Z,47.13
2018-02-07T17:52:17.626Z,49.45
2018-02-07T17:54:47.361Z,47.20
2018-02-07T17:57:17.062Z,49.65
2018-02-07T17:59:46.801Z,48.00
2018-02-07T18:02:16.551Z,50.25
2018-02-07T18:04:46.301Z,53.83
2018-02-07T18:07:16.058Z,56.92
2018-02-07T18:09:45.781Z,55.35
2018-02-07T18:12:15.503Z,56.60
2018-02-07T18:14:45.242Z,51.65
2018-02-07T18:17:15.133Z,60.78
2018-02-07T18:19:44.874Z,55.90
2018-02-07T18:22:14.620Z,53.85
2018-02-07T18:24:44.474Z,58.65
2018-02-07T18:27:14.211Z,55.92
2018-02-07T18:29:43.914Z,51.35
2018-02-07T18:32:13.649Z,58.30
2018-02-07T18:34:43.407Z,57.17
2018-02-07T18:37:13.142Z,56.78
2018-02-07T18:39:42.969Z,50.45
2018-02-07T18:42:12.694Z,59.78
2018-02-07T18:44:42.470Z,50.10
2018-02-07T18:47:12.212Z,60.75
2018-02-07T18:49:41.958Z,50.17
2018-02-07T18:52:11.736Z,52.40
2018-02-07T18:54:41.583Z,54.20
2018-02-07T18:57:11.460Z,53.78
2018-02-07T18:59:41.197Z,51.72
2018-02-07T19:02:10.965Z,53.97
2018-02-07T19:04:40.720Z,56.60
2018-02-07T19:07:10.464Z,49.92
2018-02-07T19:09:40.221Z,56.03
2018-02-07T19:12:09.953Z,55.75
2018-02-07T19:14:39.758Z,49.50
2018-02-07T19:17:09.501Z,54.10
2018-02-07T19:19:39.254Z,51.47
2018-02-07T19:22:08.981Z,51.33
2018-02-07T19:24:38.733Z,53.40
2018-02-07T19:27:08.490Z,52.60
2018-02-07T19:29:38.401Z,58.72
2018-02-07T19:32:08.150Z,56.47
2018-02-07T19:34:37.864Z,55.03
2018-02-07T19:37:07.593Z,56.65
2018-02-07T19:39:37.336Z,64.37
2018-02-07T19:42:07.189Z,61.37
2018-02-07T19:44:36.916Z,54.72
2018-02-07T19:47:06.650Z,55.65
2018-02-07T19:49:36.382Z,61.17
2018-02-07T19:52:06.133Z,68.00
2018-02-07T19:54:36.038Z,67.40
2018-02-07T19:57:05.778Z,67.05
2018-02-07T19:59:35.593Z,61.65
2018-02-07T20:02:05.350Z,65.10
2018-02-07T20:04:35.350Z,65.10
2018-02-07T20:07:05.299Z,71.47
2018-02-07T20:09:35.185Z,62.33
2018-02-07T20:12:04.945Z,53.78
2018-02-07T20:14:34.661Z,53.78
2018-02-07T20:17:04.398Z,67.12
2018-02-07T20:19:34.135Z,55.80
2018-02-07T20:22:03.861Z,65.68
2018-02-07T20:24:33.625Z,63.72
2018-02-07T20:27:03.373Z,54.95
2018-02-07T20:29:33.162Z,69.30
2018-02-07T20:32:02.876Z,65.95
2018-02-07T20:34:32.610Z,64.32
2018-02-07T20:37:02.449Z,62.88
2018-02-07T20:39:32.165Z,59.75
2018-02-07T20:42:01.929Z,62.00
2018-02-07T20:44:31.651Z,61.53
2018-02-07T20:47:01.402Z,53.97
2018-02-07T20:49:31.113Z,60.00
2018-02-07T20:52:00.855Z,49.53
2018-02-07T20:54:30.566Z,54.58
2018-02-07T20:57:00.320Z,51.05
2018-02-07T20:59:30.038Z,52.88
2018-02-07T21:01:59.942Z,49.45
2018-02-07T21:04:29.662Z,60.42
2018-02-07T21:06:59.401Z,58.22
2018-02-07T21:09:29.109Z,56.95
2018-02-07T21:11:58.885Z,58.28
2018-02-07T21:14:28.598Z,52.25
2018-02-07T21:16:58.334Z,54.20
2018-02-07T21:19:28.066Z,56.17
2018-02-07T21:21:57.871Z,54.47
2018-02-07T21:24:27.686Z,56.20
2018-02-07T21:26:57.408Z,59.92
2018-02-07T21:29:27.138Z,56.08
2018-02-07T21:31:56.866Z,55.40
2018-02-07T21:34:26.589Z,54.35
2018-02-07T21:36:56.313Z,48.72
2018-02-07T21:39:25.712Z,58.40
2018-02-07T21:41:55.531Z,48.85
2018-02-07T21:44:25.152Z,52.17
2018-02-07T21:46:54.989Z,52.50
2018-02-07T21:49:24.714Z,54.22
2018-02-07T21:51:54.469Z,53.55
2018-02-07T21:54:24.266Z,55.95
2018-02-07T21:56:53.986Z,54.03
2018-02-07T21:59:23.686Z,53.97
2018-02-07T22:01:53.421Z,51.55
2018-02-07T22:04:23.189Z,48.55
2018-02-07T22:06:52.897Z,53.25
2018-02-07T22:09:22.629Z,47.05
2018-02-07T22:11:52.369Z,50.60
2018-02-07T22:14:22.114Z,53.22
2018-02-07T22:16:51.847Z,55.35
2018-02-07T22:19:21.742Z,53.55
2018-02-07T22:21:51.658Z,54.85
2018-02-07T22:24:21.381Z,58.42
2018-02-07T22:26:51.205Z,52.55
2018-02-07T22:29:20.914Z,60.60
2018-02-07T22:31:50.641Z,54.47
2018-02-07T22:34:20.354Z,52.05
2018-02-07T22:36:50.070Z,56.97
2018-02-07T22:39:19.793Z,57.62
2018-02-07T22:41:49.520Z,55.30
2018-02-07T22:44:19.234Z,53.25
2018-02-07T22:46:48.954Z,59.25
2018-02-07T22:49:18.685Z,51.80
2018-02-07T22:51:48.395Z,52.47
2018-02-07T22:54:18.121Z,56.10
2018-02-07T22:56:47.840Z,48.25
2018-02-07T22:59:17.648Z,55.12
2018-02-07T23:01:47.357Z,52.60
2018-02-07T23:04:17.084Z,53.35
2018-02-07T23:06:46.794Z,56.45
2018-02-07T23:09:16.710Z,50.22
2018-02-07T23:11:46.441Z,51.35
2018-02-07T23:14:16.265Z,54.13
2018-02-07T23:16:46.006Z,60.28
2018-02-07T23:19:15.721Z,62.85
2018-02-07T23:21:45.466Z,52.25
2018-02-07T23:24:15.170Z,53.95
2018-02-07T23:26:44.929Z,57.30
2018-02-07T23:29:14.645Z,57.62
2018-02-07T23:31:44.513Z,57.85
2018-02-07T23:34:14.217Z,56.45
2018-02-07T23:36:43.953Z,57.38
2018-02-07T23:39:13.665Z,60.03
2018-02-07T23:41:43.367Z,60.33
2018-02-07T23:44:13.077Z,50.58
2018-02-07T23:46:42.790Z,55.40
2018-02-07T23:49:12.517Z,62.38
2018-02-07T23:51:42.269Z,51.70
2018-02-07T23:54:12.010Z,49.80
2018-02-07T23:56:41.746Z,50.53
2018-02-07T23:59:11.545Z,58.95
